sensor_id;sensor_type;location;lat;lon;timestamp;pressure;altitude;pressure_sealevel;temperature;humidity
41624;BME280;27319;50.306;18.926;2023-03-01T00:00:07;99391.13;;;-1.84;85.74
41624;BME280;27319;50.306;18.926;2023-03-01T00:04:16;99387.03;;;-1.91;85.28
41624;BME280;27319;50.306;18.926;2023-03-01T00:07:57;99381.22;;;-1.99;84.52
41624;BME280;27319;50.306;18.926;2023-03-01T00:11:20;99384.78;;;-2.00;85.28
41624;BME280;27319;50.306;18.926;2023-03-01T00:14:21;99383.03;;;-2.00;85.97
41624;BME280;27319;50.306;18.926;2023-03-01T00:17:22;99373.34;;;-1.99;85.59
41624;BME280;27319;50.306;18.926;2023-03-01T00:20:23;99379.25;;;-1.94;86.50
41624;BME280;27319;50.306;18.926;2023-03-01T00:23:24;99380.44;;;-2.01;84.89
41624;BME280;27319;50.306;18.926;2023-03-01T00:26:26;99378.44;;;-1.95;86.50
41624;BME280;27319;50.306;18.926;2023-03-01T00:29:46;99379.06;;;-1.90;85.36
41624;BME280;27319;50.306;18.926;2023-03-01T00:33:43;99375.38;;;-2.06;85.43
41624;BME280;27319;50.306;18.926;2023-03-01T00:37:04;99380.44;;;-1.81;86.03
41624;BME280;27319;50.306;18.926;2023-03-01T00:41:07;99381.88;;;-2.14;84.06
41624;BME280;27319;50.306;18.926;2023-03-01T00:45:06;99376.38;;;-2.08;85.83
41624;BME280;27319;50.306;18.926;2023-03-01T00:49:07;99380.28;;;-2.18;85.47
41624;BME280;27319;50.306;18.926;2023-03-01T00:53:07;99379.25;;;-1.94;85.96
41624;BME280;27319;50.306;18.926;2023-03-01T00:57:08;99368.59;;;-2.11;85.34
41624;BME280;27319;50.306;18.926;2023-03-01T01:01:10;99372.81;;;-1.87;86.46
41624;BME280;27319;50.306;18.926;2023-03-01T01:05:10;99361.38;;;-2.06;85.20
41624;BME280;27319;50.306;18.926;2023-03-01T01:09:15;99362.91;;;-2.01;86.30
41624;BME280;27319;50.306;18.926;2023-03-01T01:13:03;99357.66;;;-2.22;86.17
41624;BME280;27319;50.306;18.926;2023-03-01T01:16:25;99363.78;;;-2.02;86.87
41624;BME280;27319;50.306;18.926;2023-03-01T01:20:25;99364.59;;;-2.21;85.55
41624;BME280;27319;50.306;18.926;2023-03-01T01:24:25;99354.69;;;-2.35;86.00
41624;BME280;27319;50.306;18.926;2023-03-01T01:28:26;99348.69;;;-2.38;85.57
41624;BME280;27319;50.306;18.926;2023-03-01T01:32:27;99341.34;;;-2.30;86.73
41624;BME280;27319;50.306;18.926;2023-03-01T01:36:28;99345.31;;;-2.42;86.19
41624;BME280;27319;50.306;18.926;2023-03-01T01:40:29;99340.81;;;-2.38;86.21
41624;BME280;27319;50.306;18.926;2023-03-01T01:44:20;99329.88;;;-2.49;85.88
41624;BME280;27319;50.306;18.926;2023-03-01T01:48:03;99324.63;;;-2.49;87.08
41624;BME280;27319;50.306;18.926;2023-03-01T01:55:53;99319.16;;;-2.45;86.51
41624;BME280;27319;50.306;18.926;2023-03-01T01:59:54;99312.69;;;-2.36;87.98
41624;BME280;27319;50.306;18.926;2023-03-01T02:03:54;99315.66;;;-2.45;87.11
41624;BME280;27319;50.306;18.926;2023-03-01T02:07:42;99313.69;;;-2.60;86.21
41624;BME280;27319;50.306;18.926;2023-03-01T02:11:03;99309.00;;;-2.32;87.19
41624;BME280;27319;50.306;18.926;2023-03-01T02:15:04;99321.97;;;-2.49;86.18
41624;BME280;27319;50.306;18.926;2023-03-01T02:19:05;99316.66;;;-2.48;86.33
41624;BME280;27319;50.306;18.926;2023-03-01T02:23:06;99304.00;;;-2.38;87.38
41624;BME280;27319;50.306;18.926;2023-03-01T02:27:10;99326.13;;;-2.44;87.19
41624;BME280;27319;50.306;18.926;2023-03-01T02:31:11;99326.50;;;-2.53;87.91
41624;BME280;27319;50.306;18.926;2023-03-01T02:35:23;99329.13;;;-2.74;86.60
41624;BME280;27319;50.306;18.926;2023-03-01T02:39:25;99324.81;;;-2.98;85.33
41624;BME280;27319;50.306;18.926;2023-03-01T02:43:26;99329.53;;;-2.85;86.98
41624;BME280;27319;50.306;18.926;2023-03-01T02:47:26;99319.28;;;-2.69;88.31
41624;BME280;27319;50.306;18.926;2023-03-01T02:54:51;99317.47;;;-2.67;88.46
41624;BME280;27319;50.306;18.926;2023-03-01T02:58:50;99316.84;;;-2.74;87.80
41624;BME280;27319;50.306;18.926;2023-03-01T03:02:31;99317.44;;;-2.89;86.32
41624;BME280;27319;50.306;18.926;2023-03-01T03:05:39;99316.94;;;-2.77;87.48
41624;BME280;27319;50.306;18.926;2023-03-01T03:08:40;99321.22;;;-2.96;86.40
41624;BME280;27319;50.306;18.926;2023-03-01T03:11:43;99316.25;;;-3.03;86.63
41624;BME280;27319;50.306;18.926;2023-03-01T03:14:44;99313.16;;;-2.91;87.09
41624;BME280;27319;50.306;18.926;2023-03-01T03:18:06;99315.63;;;-2.87;88.00
41624;BME280;27319;50.306;18.926;2023-03-01T03:22:08;99302.41;;;-3.07;86.73
41624;BME280;27319;50.306;18.926;2023-03-01T03:26:09;99312.47;;;-2.96;87.56
41624;BME280;27319;50.306;18.926;2023-03-01T03:30:11;99296.66;;;-2.95;87.98
41624;BME280;27319;50.306;18.926;2023-03-01T03:33:51;99286.72;;;-2.87;88.02
41624;BME280;27319;50.306;18.926;2023-03-01T03:36:55;99285.09;;;-2.89;88.09
41624;BME280;27319;50.306;18.926;2023-03-01T03:40:03;99284.44;;;-2.74;88.52
41624;BME280;27319;50.306;18.926;2023-03-01T03:43:06;99286.66;;;-2.85;87.87
41624;BME280;27319;50.306;18.926;2023-03-01T03:46:08;99286.16;;;-2.95;87.19
41624;BME280;27319;50.306;18.926;2023-03-01T03:49:29;99293.25;;;-2.97;86.11
41624;BME280;27319;50.306;18.926;2023-03-01T03:53:30;99294.56;;;-3.08;86.32
41624;BME280;27319;50.306;18.926;2023-03-01T03:57:11;99300.84;;;-2.89;87.89
41624;BME280;27319;50.306;18.926;2023-03-01T04:00:12;99290.19;;;-3.08;86.69
41624;BME280;27319;50.306;18.926;2023-03-01T04:03:16;99292.09;;;-3.34;85.76
41624;BME280;27319;50.306;18.926;2023-03-01T04:06:37;99294.31;;;-3.24;86.82
41624;BME280;27319;50.306;18.926;2023-03-01T04:10:39;99294.34;;;-3.25;86.61
41624;BME280;27319;50.306;18.926;2023-03-01T04:14:38;99290.63;;;-3.18;87.62
41624;BME280;27319;50.306;18.926;2023-03-01T04:18:39;99301.66;;;-3.10;88.34
41624;BME280;27319;50.306;18.926;2023-03-01T04:22:40;99297.91;;;-3.26;86.73
41624;BME280;27319;50.306;18.926;2023-03-01T04:26:53;99293.53;;;-3.26;87.41
41624;BME280;27319;50.306;18.926;2023-03-01T04:30:55;99293.25;;;-3.18;88.11
41624;BME280;27319;50.306;18.926;2023-03-01T04:34:35;99292.59;;;-3.25;88.17
41624;BME280;27319;50.306;18.926;2023-03-01T04:37:36;99289.69;;;-3.17;88.37
41624;BME280;27319;50.306;18.926;2023-03-01T04:40:37;99274.78;;;-3.17;87.16
41624;BME280;27319;50.306;18.926;2023-03-01T04:43:38;99284.03;;;-3.30;87.57
41624;BME280;27319;50.306;18.926;2023-03-01T04:46:39;99280.31;;;-3.01;88.98
41624;BME280;27319;50.306;18.926;2023-03-01T04:49:40;99287.50;;;-3.06;86.79
41624;BME280;27319;50.306;18.926;2023-03-01T04:52:42;99281.69;;;-3.37;85.62
41624;BME280;27319;50.306;18.926;2023-03-01T04:55:43;99273.28;;;-3.45;86.12
41624;BME280;27319;50.306;18.926;2023-03-01T04:59:04;99269.63;;;-3.41;86.73
41624;BME280;27319;50.306;18.926;2023-03-01T05:03:05;99270.00;;;-3.29;88.61
41624;BME280;27319;50.306;18.926;2023-03-01T05:06:46;99266.41;;;-3.26;87.98
41624;BME280;27319;50.306;18.926;2023-03-01T05:09:47;99269.66;;;-3.20;88.59
41624;BME280;27319;50.306;18.926;2023-03-01T05:13:08;99268.94;;;-3.23;87.82
41624;BME280;27319;50.306;18.926;2023-03-01T05:17:09;99263.28;;;-3.36;86.92
41624;BME280;27319;50.306;18.926;2023-03-01T05:21:11;99262.88;;;-3.48;85.90
41624;BME280;27319;50.306;18.926;2023-03-01T05:25:11;99252.63;;;-3.54;87.81
41624;BME280;27319;50.306;18.926;2023-03-01T05:29:12;99249.19;;;-3.56;87.34
41624;BME280;27319;50.306;18.926;2023-03-01T05:33:13;99249.84;;;-3.50;88.03
41624;BME280;27319;50.306;18.926;2023-03-01T05:36:54;99259.97;;;-3.41;88.14
41624;BME280;27319;50.306;18.926;2023-03-01T05:39:54;99261.75;;;-3.41;88.38
41624;BME280;27319;50.306;18.926;2023-03-01T05:42:56;99261.13;;;-3.48;87.52
41624;BME280;27319;50.306;18.926;2023-03-01T05:46:17;99269.50;;;-3.61;87.00
41624;BME280;27319;50.306;18.926;2023-03-01T05:50:25;99281.81;;;-3.63;86.68
41624;BME280;27319;50.306;18.926;2023-03-01T05:54:22;99286.59;;;-3.74;86.56
41624;BME280;27319;50.306;18.926;2023-03-01T05:58:22;99288.31;;;-3.73;87.62
41624;BME280;27319;50.306;18.926;2023-03-01T06:02:23;99288.22;;;-3.70;87.04
41624;BME280;27319;50.306;18.926;2023-03-01T06:06:10;99272.63;;;-3.75;87.05
41624;BME280;27319;50.306;18.926;2023-03-01T06:09:31;99276.59;;;-3.63;87.34
41624;BME280;27319;50.306;18.926;2023-03-01T06:13:32;99280.88;;;-3.38;88.43
41624;BME280;27319;50.306;18.926;2023-03-01T06:17:33;99278.28;;;-3.39;88.00
41624;BME280;27319;50.306;18.926;2023-03-01T06:21:33;99288.88;;;-3.42;87.84
41624;BME280;27319;50.306;18.926;2023-03-01T06:25:34;99277.31;;;-3.37;87.79
41624;BME280;27319;50.306;18.926;2023-03-01T06:29:35;99291.91;;;-3.30;87.65
41624;BME280;27319;50.306;18.926;2023-03-01T06:33:36;99294.34;;;-3.25;87.48
41624;BME280;27319;50.306;18.926;2023-03-01T06:37:04;99294.66;;;-3.33;87.84
41624;BME280;27319;50.306;18.926;2023-03-01T06:40:25;99288.00;;;-3.18;87.99
41624;BME280;27319;50.306;18.926;2023-03-01T06:44:26;99282.09;;;-3.25;88.67
41624;BME280;27319;50.306;18.926;2023-03-01T06:48:27;99279.69;;;-3.08;88.76
41624;BME280;27319;50.306;18.926;2023-03-01T06:52:28;99285.72;;;-3.06;88.15
41624;BME280;27319;50.306;18.926;2023-03-01T06:56:29;99285.25;;;-2.94;88.34
41624;BME280;27319;50.306;18.926;2023-03-01T07:00:10;99277.38;;;-2.94;88.04
41624;BME280;27319;50.306;18.926;2023-03-01T07:03:31;99285.00;;;-2.88;88.19
41624;BME280;27319;50.306;18.926;2023-03-01T07:07:12;99282.28;;;-2.85;87.74
41624;BME280;27319;50.306;18.926;2023-03-01T07:10:33;99287.22;;;-2.77;88.06
41624;BME280;27319;50.306;18.926;2023-03-01T07:14:14;99277.13;;;-2.66;87.96
41624;BME280;27319;50.306;18.926;2023-03-01T07:17:15;99271.00;;;-2.67;88.54
41624;BME280;27319;50.306;18.926;2023-03-01T07:20:39;99268.88;;;-2.57;88.90
41624;BME280;27319;50.306;18.926;2023-03-01T07:24:41;99255.31;;;-2.47;88.33
41624;BME280;27319;50.306;18.926;2023-03-01T07:28:44;99260.16;;;-2.38;88.23
41624;BME280;27319;50.306;18.926;2023-03-01T07:32:45;99259.44;;;-2.21;87.45
41624;BME280;27319;50.306;18.926;2023-03-01T07:36:26;99254.97;;;-1.99;86.91
41624;BME280;27319;50.306;18.926;2023-03-01T07:39:47;99253.53;;;-1.86;86.42
41624;BME280;27319;50.306;18.926;2023-03-01T07:43:50;99255.19;;;-1.84;86.51
41624;BME280;27319;50.306;18.926;2023-03-01T07:47:52;99262.91;;;-1.81;86.96
41624;BME280;27319;50.306;18.926;2023-03-01T07:51:52;99262.09;;;-1.63;86.03
41624;BME280;27319;50.306;18.926;2023-03-01T07:56:00;99256.94;;;-1.46;86.10
41624;BME280;27319;50.306;18.926;2023-03-01T08:00:00;99257.84;;;-1.47;86.14
41624;BME280;27319;50.306;18.926;2023-03-01T08:04:01;99261.63;;;-1.34;85.62
41624;BME280;27319;50.306;18.926;2023-03-01T08:08:02;99250.41;;;-1.19;85.28
41624;BME280;27319;50.306;18.926;2023-03-01T08:12:03;99261.47;;;-1.12;84.72
41624;BME280;27319;50.306;18.926;2023-03-01T08:16:04;99261.53;;;-0.95;84.47
41624;BME280;27319;50.306;18.926;2023-03-01T08:20:05;99262.88;;;-0.68;83.14
41624;BME280;27319;50.306;18.926;2023-03-01T08:24:06;99238.53;;;-0.56;82.23
41624;BME280;27319;50.306;18.926;2023-03-01T08:28:06;99248.97;;;-0.36;80.92
41624;BME280;27319;50.306;18.926;2023-03-01T08:32:07;99247.50;;;-0.25;79.70
41624;BME280;27319;50.306;18.926;2023-03-01T08:35:12;99246.16;;;-0.17;80.16
41624;BME280;27319;50.306;18.926;2023-03-01T08:38:33;99250.69;;;-0.02;78.84
41624;BME280;27319;50.306;18.926;2023-03-01T08:42:34;99243.06;;;0.09;77.40
41624;BME280;27319;50.306;18.926;2023-03-01T08:46:35;99236.91;;;0.26;75.16
41624;BME280;27319;50.306;18.926;2023-03-01T08:50:35;99245.50;;;0.29;75.04
41624;BME280;27319;50.306;18.926;2023-03-01T08:54:36;99237.88;;;0.40;74.48
41624;BME280;27319;50.306;18.926;2023-03-01T08:58:37;99243.44;;;0.51;74.26
41624;BME280;27319;50.306;18.926;2023-03-01T09:02:18;99242.25;;;0.57;74.17
41624;BME280;27319;50.306;18.926;2023-03-01T09:05:19;99246.31;;;0.79;74.37
41624;BME280;27319;50.306;18.926;2023-03-01T09:08:20;99237.84;;;0.88;72.94
41624;BME280;27319;50.306;18.926;2023-03-01T09:11:41;99240.16;;;0.94;70.94
41624;BME280;27319;50.306;18.926;2023-03-01T09:15:41;99236.59;;;1.11;70.85
41624;BME280;27319;50.306;18.926;2023-03-01T09:19:42;99240.66;;;1.32;68.53
41624;BME280;27319;50.306;18.926;2023-03-01T09:23:44;99235.28;;;1.33;68.04
41624;BME280;27319;50.306;18.926;2023-03-01T09:27:44;99242.19;;;1.36;68.88
41624;BME280;27319;50.306;18.926;2023-03-01T09:31:25;99240.91;;;1.43;68.61
41624;BME280;27319;50.306;18.926;2023-03-01T09:34:26;99238.75;;;1.49;68.04
41624;BME280;27319;50.306;18.926;2023-03-01T09:37:47;99238.41;;;1.55;67.17
41624;BME280;27319;50.306;18.926;2023-03-01T09:41:49;99230.31;;;1.58;65.53
41624;BME280;27319;50.306;18.926;2023-03-01T09:45:54;99227.06;;;1.53;66.81
41624;BME280;27319;50.306;18.926;2023-03-01T09:53:31;99225.06;;;1.72;68.51
41624;BME280;27319;50.306;18.926;2023-03-01T09:57:19;99221.41;;;1.89;67.25
41624;BME280;27319;50.306;18.926;2023-03-01T10:04:51;99224.00;;;2.04;64.10
41624;BME280;27319;50.306;18.926;2023-03-01T10:11:50;99215.06;;;1.91;65.59
41624;BME280;27319;50.306;18.926;2023-03-01T10:15:50;99216.97;;;1.89;65.31
41624;BME280;27319;50.306;18.926;2023-03-01T10:19:53;99219.69;;;2.31;64.22
41624;BME280;27319;50.306;18.926;2023-03-01T10:23:54;99218.28;;;2.54;63.22
41624;BME280;27319;50.306;18.926;2023-03-01T10:28:00;99211.06;;;2.56;62.50
41624;BME280;27319;50.306;18.926;2023-03-01T10:32:11;99209.84;;;2.61;62.99
41624;BME280;27319;50.306;18.926;2023-03-01T10:36:11;99215.13;;;2.75;63.25
41624;BME280;27319;50.306;18.926;2023-03-01T10:43:19;99202.06;;;2.86;61.77
41624;BME280;27319;50.306;18.926;2023-03-01T10:47:03;99201.94;;;3.02;61.80
41624;BME280;27319;50.306;18.926;2023-03-01T10:51:06;99201.59;;;3.20;62.46
41624;BME280;27319;50.306;18.926;2023-03-01T10:55:03;99203.09;;;3.24;60.09
41624;BME280;27319;50.306;18.926;2023-03-01T10:58:21;99188.91;;;3.11;61.34
41624;BME280;27319;50.306;18.926;2023-03-01T11:02:26;99190.94;;;3.34;61.79
41624;BME280;27319;50.306;18.926;2023-03-01T11:09:20;99180.06;;;3.51;61.21
41624;BME280;27319;50.306;18.926;2023-03-01T11:13:16;99180.00;;;3.65;58.77
41624;BME280;27319;50.306;18.926;2023-03-01T11:17:29;99178.22;;;3.78;60.00
41624;BME280;27319;50.306;18.926;2023-03-01T11:21:30;99169.16;;;3.68;58.02
41624;BME280;27319;50.306;18.926;2023-03-01T11:25:35;99167.78;;;3.75;59.26
41624;BME280;27319;50.306;18.926;2023-03-01T11:29:53;99162.09;;;3.94;58.40
41624;BME280;27319;50.306;18.926;2023-03-01T11:37:15;99161.25;;;4.18;58.32
41624;BME280;27319;50.306;18.926;2023-03-01T11:40:39;99161.88;;;4.47;57.83
41624;BME280;27319;50.306;18.926;2023-03-01T11:47:51;99165.84;;;5.13;55.64
41624;BME280;27319;50.306;18.926;2023-03-01T12:00:02;99164.91;;;8.22;48.92
41624;BME280;27319;50.306;18.926;2023-03-01T12:02:56;99154.91;;;9.14;45.26
41624;BME280;27319;50.306;18.926;2023-03-01T12:06:55;99148.44;;;9.17;43.68
41624;BME280;27319;50.306;18.926;2023-03-01T12:13:34;99156.09;;;10.81;40.67
41624;BME280;27319;50.306;18.926;2023-03-01T12:32:35;99143.53;;;10.82;37.88
41624;BME280;27319;50.306;18.926;2023-03-01T12:46:31;99115.50;;;11.38;35.41
41624;BME280;27319;50.306;18.926;2023-03-01T12:49:48;99107.69;;;11.62;36.22
41624;BME280;27319;50.306;18.926;2023-03-01T12:52:52;99112.88;;;11.46;39.04
41624;BME280;27319;50.306;18.926;2023-03-01T12:56:00;99104.53;;;11.84;38.75
41624;BME280;27319;50.306;18.926;2023-03-01T12:59:12;99109.91;;;11.49;37.07
41624;BME280;27319;50.306;18.926;2023-03-01T13:02:23;99113.31;;;11.24;37.30
41624;BME280;27319;50.306;18.926;2023-03-01T13:16:40;99093.94;;;11.82;34.97
41624;BME280;27319;50.306;18.926;2023-03-01T13:24:03;99089.78;;;11.88;34.77
41624;BME280;27319;50.306;18.926;2023-03-01T13:34:06;99080.66;;;11.01;33.03
41624;BME280;27319;50.306;18.926;2023-03-01T13:37:47;99087.78;;;11.90;33.75
41624;BME280;27319;50.306;18.926;2023-03-01T13:48:00;99068.16;;;10.83;31.96
41624;BME280;27319;50.306;18.926;2023-03-01T13:51:57;99063.63;;;11.10;32.64
41624;BME280;27319;50.306;18.926;2023-03-01T13:56:20;99058.66;;;11.33;35.42
41624;BME280;27319;50.306;18.926;2023-03-01T13:59:59;99066.19;;;11.29;36.08
41624;BME280;27319;50.306;18.926;2023-03-01T14:04:00;99058.53;;;11.07;35.11
41624;BME280;27319;50.306;18.926;2023-03-01T14:08:00;99048.72;;;10.98;37.24
41624;BME280;27319;50.306;18.926;2023-03-01T14:12:10;99042.81;;;10.68;36.02
41624;BME280;27319;50.306;18.926;2023-03-01T14:16:31;99046.75;;;10.10;36.22
41624;BME280;27319;50.306;18.926;2023-03-01T14:20:09;99044.25;;;10.89;38.80
41624;BME280;27319;50.306;18.926;2023-03-01T14:24:18;99045.59;;;10.76;36.10
41624;BME280;27319;50.306;18.926;2023-03-01T14:28:18;99036.59;;;10.94;36.39
41624;BME280;27319;50.306;18.926;2023-03-01T14:32:27;99031.66;;;10.36;34.62
41624;BME280;27319;50.306;18.926;2023-03-01T14:35:55;99022.00;;;9.23;38.60
41624;BME280;27319;50.306;18.926;2023-03-01T14:39:55;99011.34;;;8.64;38.08
41624;BME280;27319;50.306;18.926;2023-03-01T14:43:55;99010.94;;;7.69;41.63
41624;BME280;27319;50.306;18.926;2023-03-01T14:47:58;99010.75;;;7.09;42.57
41624;BME280;27319;50.306;18.926;2023-03-01T14:52:01;99008.63;;;6.92;42.90
41624;BME280;27319;50.306;18.926;2023-03-01T14:56:01;98996.09;;;6.72;39.38
41624;BME280;27319;50.306;18.926;2023-03-01T15:00:02;99005.31;;;6.68;40.49
41624;BME280;27319;50.306;18.926;2023-03-01T15:04:02;98999.09;;;6.36;43.35
41624;BME280;27319;50.306;18.926;2023-03-01T15:08:03;99002.28;;;6.19;41.71
41624;BME280;27319;50.306;18.926;2023-03-01T15:12:25;98993.28;;;6.31;43.50
41624;BME280;27319;50.306;18.926;2023-03-01T15:16:09;98993.31;;;6.20;42.05
41624;BME280;27319;50.306;18.926;2023-03-01T15:20:16;99002.66;;;5.93;44.55
41624;BME280;27319;50.306;18.926;2023-03-01T15:24:25;98995.81;;;5.78;45.03
41624;BME280;27319;50.306;18.926;2023-03-01T15:28:18;98990.72;;;5.64;49.30
41624;BME280;27319;50.306;18.926;2023-03-01T15:32:30;98988.88;;;5.53;48.40
41624;BME280;27319;50.306;18.926;2023-03-01T15:36:45;98987.44;;;5.38;52.65
41624;BME280;27319;50.306;18.926;2023-03-01T15:40:48;98984.72;;;5.27;49.49
41624;BME280;27319;50.306;18.926;2023-03-01T15:44:49;98987.22;;;5.07;49.79
41624;BME280;27319;50.306;18.926;2023-03-01T15:48:50;98981.13;;;5.05;52.27
41624;BME280;27319;50.306;18.926;2023-03-01T15:52:54;98984.06;;;5.02;51.78
41624;BME280;27319;50.306;18.926;2023-03-01T15:56:57;98986.19;;;4.97;52.31
41624;BME280;27319;50.306;18.926;2023-03-01T16:00:58;98984.81;;;4.80;53.40
41624;BME280;27319;50.306;18.926;2023-03-01T16:04:58;98994.44;;;4.70;54.51
41624;BME280;27319;50.306;18.926;2023-03-01T16:08:59;98988.59;;;4.65;54.65
41624;BME280;27319;50.306;18.926;2023-03-01T16:13:00;98991.00;;;4.57;56.49
41624;BME280;27319;50.306;18.926;2023-03-01T16:16:42;98990.94;;;4.46;56.42
41624;BME280;27319;50.306;18.926;2023-03-01T16:20:02;98999.91;;;4.33;56.04
41624;BME280;27319;50.306;18.926;2023-03-01T16:24:03;99001.19;;;4.27;59.33
41624;BME280;27319;50.306;18.926;2023-03-01T16:28:04;99003.13;;;4.13;59.37
41624;BME280;27319;50.306;18.926;2023-03-01T16:32:05;99000.63;;;3.99;61.20
41624;BME280;27319;50.306;18.926;2023-03-01T16:35:26;99010.19;;;3.89;61.49
41624;BME280;27319;50.306;18.926;2023-03-01T16:38:27;99000.88;;;3.71;60.21
41624;BME280;27319;50.306;18.926;2023-03-01T16:41:28;99013.72;;;3.64;60.01
41624;BME280;27319;50.306;18.926;2023-03-01T16:44:29;99014.91;;;3.60;63.82
41624;BME280;27319;50.306;18.926;2023-03-01T16:47:30;99014.97;;;3.46;61.59
41624;BME280;27319;50.306;18.926;2023-03-01T16:50:55;99013.41;;;3.31;61.33
41624;BME280;27319;50.306;18.926;2023-03-01T16:54:35;99016.13;;;3.05;62.60
41624;BME280;27319;50.306;18.926;2023-03-01T16:57:37;99012.06;;;2.99;60.79
41624;BME280;27319;50.306;18.926;2023-03-01T17:01:02;99016.66;;;2.83;61.50
41624;BME280;27319;50.306;18.926;2023-03-01T17:04:59;99014.00;;;2.71;63.68
41624;BME280;27319;50.306;18.926;2023-03-01T17:08:40;99015.06;;;2.68;64.51
41624;BME280;27319;50.306;18.926;2023-03-01T17:11:41;99020.00;;;2.60;62.69
41624;BME280;27319;50.306;18.926;2023-03-01T17:14:42;99023.59;;;2.59;62.88
41624;BME280;27319;50.306;18.926;2023-03-01T17:17:43;99024.06;;;2.66;62.47
41624;BME280;27319;50.306;18.926;2023-03-01T17:20:44;99025.09;;;2.63;65.13
41624;BME280;27319;50.306;18.926;2023-03-01T17:23:47;99026.16;;;2.61;62.70
41624;BME280;27319;50.306;18.926;2023-03-01T17:26:50;99021.81;;;2.60;63.21
41624;BME280;27319;50.306;18.926;2023-03-01T17:29:51;99026.94;;;2.49;62.03
41624;BME280;27319;50.306;18.926;2023-03-01T17:32:52;99021.56;;;2.50;65.81
41624;BME280;27319;50.306;18.926;2023-03-01T17:35:55;99026.47;;;2.42;65.52
41624;BME280;27319;50.306;18.926;2023-03-01T17:39:17;99028.09;;;2.45;66.60
41624;BME280;27319;50.306;18.926;2023-03-01T17:43:17;99028.97;;;2.31;65.74
41624;BME280;27319;50.306;18.926;2023-03-01T17:47:18;99031.34;;;2.22;64.43
41624;BME280;27319;50.306;18.926;2023-03-01T17:50:59;99027.09;;;2.19;66.09
41624;BME280;27319;50.306;18.926;2023-03-01T17:55:00;99026.94;;;2.08;67.68
41624;BME280;27319;50.306;18.926;2023-03-01T17:59:01;99018.81;;;2.11;69.78
41624;BME280;27319;50.306;18.926;2023-03-01T18:03:02;99014.47;;;1.96;67.14
41624;BME280;27319;50.306;18.926;2023-03-01T18:06:43;99018.16;;;1.94;68.49
41624;BME280;27319;50.306;18.926;2023-03-01T18:10:04;99015.44;;;1.95;70.76
41624;BME280;27319;50.306;18.926;2023-03-01T18:14:04;99015.06;;;1.73;68.44
41624;BME280;27319;50.306;18.926;2023-03-01T18:18:08;99022.03;;;1.74;70.54
41624;BME280;27319;50.306;18.926;2023-03-01T18:22:09;99028.88;;;1.64;68.59
41624;BME280;27319;50.306;18.926;2023-03-01T18:26:11;99026.41;;;1.61;71.21
41624;BME280;27319;50.306;18.926;2023-03-01T18:30:12;99023.56;;;1.64;70.88
41624;BME280;27319;50.306;18.926;2023-03-01T18:34:12;99025.75;;;1.58;71.54
41624;BME280;27319;50.306;18.926;2023-03-01T18:38:13;99024.88;;;1.57;73.99
41624;BME280;27319;50.306;18.926;2023-03-01T18:42:13;99024.03;;;1.57;72.90
41624;BME280;27319;50.306;18.926;2023-03-01T18:45:55;99029.41;;;1.55;74.47
41624;BME280;27319;50.306;18.926;2023-03-01T18:49:35;99012.03;;;1.37;72.17
41624;BME280;27319;50.306;18.926;2023-03-01T18:53:33;99019.75;;;1.40;74.38
41624;BME280;27319;50.306;18.926;2023-03-01T18:56:53;99011.66;;;1.43;75.07
41624;BME280;27319;50.306;18.926;2023-03-01T19:00:34;99007.47;;;1.39;75.31
41624;BME280;27319;50.306;18.926;2023-03-01T19:03:55;99010.28;;;1.22;72.88
41624;BME280;27319;50.306;18.926;2023-03-01T19:07:04;99012.56;;;1.14;72.38
41624;BME280;27319;50.306;18.926;2023-03-01T19:10:08;99012.25;;;1.05;71.06
41624;BME280;27319;50.306;18.926;2023-03-01T19:13:09;99013.72;;;0.95;70.92
41624;BME280;27319;50.306;18.926;2023-03-01T19:16:16;99011.06;;;0.81;71.11
41624;BME280;27319;50.306;18.926;2023-03-01T19:19:37;99011.09;;;0.95;75.37
41624;BME280;27319;50.306;18.926;2023-03-01T19:23:38;99005.16;;;1.05;76.33
41624;BME280;27319;50.306;18.926;2023-03-01T19:27:39;99009.44;;;0.78;71.00
41624;BME280;27319;50.306;18.926;2023-03-01T19:31:39;98998.88;;;0.78;75.05
41624;BME280;27319;50.306;18.926;2023-03-01T19:35:40;98996.81;;;0.83;76.27
41624;BME280;27319;50.306;18.926;2023-03-01T19:39:41;98988.19;;;0.80;76.31
41624;BME280;27319;50.306;18.926;2023-03-01T19:43:42;98975.84;;;0.80;75.80
41624;BME280;27319;50.306;18.926;2023-03-01T19:47:45;98973.22;;;0.94;78.06
41624;BME280;27319;50.306;18.926;2023-03-01T19:51:24;98988.91;;;0.68;74.99
41624;BME280;27319;50.306;18.926;2023-03-01T19:54:44;98985.44;;;0.67;76.15
41624;BME280;27319;50.306;18.926;2023-03-01T19:58:48;98996.25;;;0.78;78.05
41624;BME280;27319;50.306;18.926;2023-03-01T20:02:49;98997.94;;;0.79;77.80
41624;BME280;27319;50.306;18.926;2023-03-01T20:06:29;99009.59;;;0.75;76.37
41624;BME280;27319;50.306;18.926;2023-03-01T20:09:30;99017.25;;;0.50;73.68
41624;BME280;27319;50.306;18.926;2023-03-01T20:12:52;99016.72;;;0.59;76.37
41624;BME280;27319;50.306;18.926;2023-03-01T20:16:52;99017.00;;;0.39;76.22
41624;BME280;27319;50.306;18.926;2023-03-01T20:20:53;99015.03;;;0.43;77.77
41624;BME280;27319;50.306;18.926;2023-03-01T20:24:54;99013.66;;;0.51;79.02
41624;BME280;27319;50.306;18.926;2023-03-01T20:28:55;99018.72;;;0.40;79.39
41624;BME280;27319;50.306;18.926;2023-03-01T20:32:55;99025.19;;;0.19;75.30
41624;BME280;27319;50.306;18.926;2023-03-01T20:36:36;99016.84;;;0.11;75.69
41624;BME280;27319;50.306;18.926;2023-03-01T20:39:58;99010.63;;;-0.03;74.44
41624;BME280;27319;50.306;18.926;2023-03-01T20:43:44;99014.28;;;-0.21;74.41
41624;BME280;27319;50.306;18.926;2023-03-01T20:47:14;99017.78;;;-0.05;79.23
41624;BME280;27319;50.306;18.926;2023-03-01T20:51:15;99004.75;;;0.07;80.30
41624;BME280;27319;50.306;18.926;2023-03-01T20:55:15;99005.34;;;0.12;78.18
41624;BME280;27319;50.306;18.926;2023-03-01T20:58:53;98998.22;;;0.30;80.16
41624;BME280;27319;50.306;18.926;2023-03-01T21:02:34;99002.97;;;0.23;79.41
41624;BME280;27319;50.306;18.926;2023-03-01T21:05:38;98993.69;;;0.16;79.76
41624;BME280;27319;50.306;18.926;2023-03-01T21:08:39;98998.72;;;0.05;79.65